createdAt,value
2019-03-09T00:01:44.932Z,88.69
2019-03-09T00:04:18.567Z,88.93
2019-03-09T00:06:52.826Z,89.76
2019-03-09T00:09:24.365Z,90.04
2019-03-09T00:11:59.840Z,92.98
2019-03-09T00:14:31.430Z,96.00
2019-03-09T00:17:05.428Z,97.44
2019-03-09T00:19:39.181Z,97.94
2019-03-09T00:22:11.717Z,99.24
2019-03-09T00:24:47.040Z,100.00
2019-03-09T00:27:29.447Z,99.29
2019-03-09T00:30:07.551Z,99.17
2019-03-09T00:32:39.103Z,99.39
2019-03-09T00:35:10.497Z,98.80
2019-03-09T00:37:40.408Z,98.48
2019-03-09T00:40:12.627Z,99.02
2019-03-09T00:42:49.948Z,98.90
2019-03-09T00:45:23.456Z,98.87
2019-03-09T00:47:54.915Z,98.87
2019-03-09T00:50:26.248Z,99.50
2019-03-09T00:53:00.321Z,98.88
2019-03-09T00:55:32.190Z,95.72
2019-03-09T00:58:09.059Z,92.95
2019-03-09T01:00:41.119Z,90.37
2019-03-09T01:03:12.128Z,88.11
2019-03-09T01:05:43.270Z,86.70
2019-03-09T01:08:21.123Z,87.49
2019-03-09T01:10:52.108Z,87.35
2019-03-09T01:13:27.273Z,87.96
2019-03-09T01:16:05.525Z,87.81
2019-03-09T01:18:39.957Z,88.46
2019-03-09T01:21:13.216Z,88.60
2019-03-09T01:23:49.328Z,90.08
2019-03-09T01:26:20.932Z,89.03
2019-03-09T01:29:01.451Z,84.98
2019-03-09T01:31:37.389Z,83.19
2019-03-09T01:34:09.863Z,84.31
2019-03-09T01:36:44.115Z,85.83
2019-03-09T01:39:18.045Z,86.61
2019-03-09T01:41:51.376Z,87.54
2019-03-09T01:44:23.234Z,86.97
2019-03-09T01:46:55.026Z,81.38
2019-03-09T01:49:27.470Z,79.02
2019-03-09T01:51:59.319Z,77.49
2019-03-09T01:54:30.452Z,76.54
2019-03-09T01:57:04.411Z,76.73
2019-03-09T01:59:37.286Z,76.74
2019-03-09T02:02:10.570Z,76.19
2019-03-09T02:04:44.823Z,74.71
2019-03-09T02:07:19.851Z,74.37
2019-03-09T02:09:55.046Z,73.43
2019-03-09T02:12:27.039Z,75.23
2019-03-09T02:15:06.849Z,78.39
2019-03-09T02:17:40.460Z,83.72
2019-03-09T02:20:20.119Z,87.71
2019-03-09T02:22:52.084Z,91.43
2019-03-09T02:25:25.404Z,91.43
2019-03-09T02:27:57.159Z,97.47
2019-03-09T02:30:28.918Z,97.00
2019-03-09T02:33:01.968Z,87.59
2019-03-09T02:35:33.054Z,86.73
2019-03-09T02:38:06.941Z,86.73
2019-03-09T02:40:38.901Z,87.32
2019-03-09T02:43:16.122Z,87.59
2019-03-09T02:45:53.560Z,89.78
2019-03-09T02:48:29.184Z,90.26
2019-03-09T02:51:04.331Z,91.61
2019-03-09T02:53:37.760Z,93.54
2019-03-09T02:56:09.307Z,97.28
2019-03-09T02:58:47.239Z,95.81
2019-03-09T03:01:23.041Z,91.21
2019-03-09T03:03:55.136Z,90.83
2019-03-09T03:06:28.426Z,91.84
2019-03-09T03:08:59.091Z,92.04
2019-03-09T03:11:30.470Z,94.49
2019-03-09T03:14:01.966Z,96.29
2019-03-09T03:16:32.042Z,98.53
2019-03-09T03:19:03.567Z,100.00
2019-03-09T03:21:35.333Z,100.00
2019-03-09T03:24:11.194Z,100.00
2019-03-09T03:26:44.213Z,100.00
2019-03-09T03:29:16.114Z,100.00
2019-03-09T03:31:47.906Z,99.10
2019-03-09T03:34:21.383Z,96.45
2019-03-09T03:36:51.980Z,95.86
2019-03-09T03:39:22.152Z,96.81
2019-03-09T03:41:52.603Z,97.79
2019-03-09T03:44:25.002Z,98.46
2019-03-09T03:47:00.656Z,100.00
2019-03-09T03:49:31.425Z,100.00
2019-03-09T03:52:01.685Z,100.00
2019-03-09T03:54:32.365Z,100.00
2019-03-09T03:57:03.513Z,100.00
2019-03-09T03:59:34.056Z,99.95
2019-03-09T04:02:05.119Z,98.69
2019-03-09T04:04:39.151Z,97.79
2019-03-09T04:07:10.060Z,97.32
2019-03-09T04:09:42.155Z,96.68
2019-03-09T04:12:13.569Z,99.65
2019-03-09T04:14:46.941Z,98.42
2019-03-09T04:17:18.819Z,98.70
2019-03-09T04:19:54.327Z,100.00
2019-03-09T04:22:26.289Z,100.00
2019-03-09T04:24:57.848Z,100.00
2019-03-09T04:27:27.675Z,100.00
2019-03-09T04:29:59.491Z,100.00
2019-03-09T04:32:31.180Z,100.00
2019-03-09T04:35:02.741Z,100.00
2019-03-09T04:37:33.977Z,100.00
2019-03-09T04:40:06.344Z,100.00
2019-03-09T04:42:36.834Z,100.00
2019-03-09T04:45:11.758Z,100.00
2019-03-09T04:47:42.548Z,100.00
2019-03-09T04:50:16.428Z,100.00
2019-03-09T04:52:47.808Z,100.00
2019-03-09T04:55:18.906Z,100.00
2019-03-09T04:57:49.809Z,100.00
2019-03-09T05:00:23.650Z,100.00
2019-03-09T05:02:56.681Z,100.00
2019-03-09T05:05:28.864Z,100.00
2019-03-09T05:08:02.245Z,100.00
2019-03-09T05:10:35.984Z,100.00
2019-03-09T05:13:12.718Z,100.00
2019-03-09T05:15:44.302Z,100.00
2019-03-09T05:18:15.535Z,100.00
2019-03-09T05:20:46.385Z,100.00
2019-03-09T05:23:21.459Z,100.00
2019-03-09T05:25:52.797Z,100.00
2019-03-09T05:28:25.185Z,100.00
2019-03-09T05:30:56.234Z,100.00
2019-03-09T05:33:27.992Z,100.00
2019-03-09T05:36:00.734Z,100.00
2019-03-09T05:38:31.891Z,100.00
2019-03-09T05:41:02.430Z,100.00
2019-03-09T05:43:35.347Z,100.00
2019-03-09T05:46:07.127Z,100.00
2019-03-09T05:48:38.180Z,100.00
2019-03-09T05:51:08.951Z,100.00
2019-03-09T05:53:40.390Z,100.00
2019-03-09T05:56:11.447Z,98.64
2019-03-09T05:58:43.277Z,95.88
2019-03-09T06:01:15.225Z,95.88
2019-03-09T06:03:45.651Z,94.00
2019-03-09T06:06:18.664Z,88.15
2019-03-09T06:08:49.425Z,86.61
2019-03-09T06:11:19.325Z,84.85
2019-03-09T06:13:49.785Z,82.94
2019-03-09T06:16:19.802Z,81.41
2019-03-09T06:18:50.926Z,77.06
2019-03-09T06:21:22.411Z,76.83
2019-03-09T06:23:53.263Z,74.65
2019-03-09T06:26:24.131Z,73.01
2019-03-09T06:28:54.957Z,73.64
2019-03-09T06:31:25.253Z,72.85
2019-03-09T06:33:55.613Z,70.55
2019-03-09T06:36:28.630Z,70.64
2019-03-09T06:39:01.413Z,71.74
2019-03-09T06:41:42.034Z,69.69
2019-03-09T06:44:12.777Z,67.78
2019-03-09T06:46:42.891Z,66.81
2019-03-09T06:49:14.316Z,64.00
2019-03-09T06:51:45.228Z,64.04
2019-03-09T06:54:16.135Z,62.48
2019-03-09T06:56:46.545Z,64.44
2019-03-09T06:59:18.558Z,65.96
2019-03-09T07:01:50.925Z,65.26
2019-03-09T07:04:21.103Z,64.99
2019-03-09T07:06:50.999Z,63.48
2019-03-09T07:09:21.163Z,62.80
2019-03-09T07:11:52.442Z,61.63
2019-03-09T07:14:54.764Z,61.31
2019-03-09T07:17:25.651Z,62.36
2019-03-09T07:19:56.118Z,60.07
2019-03-09T07:22:29.796Z,63.24
2019-03-09T07:24:59.737Z,60.11
2019-03-09T07:27:32.921Z,59.24
2019-03-09T07:30:03.891Z,61.49
2019-03-09T07:32:34.714Z,59.46
2019-03-09T07:35:06.288Z,57.32
2019-03-09T07:37:37.094Z,56.11
2019-03-09T07:40:10.295Z,57.65
2019-03-09T07:42:40.925Z,56.53
2019-03-09T07:45:14.185Z,56.60
2019-03-09T07:47:44.693Z,55.57
2019-03-09T07:50:17.641Z,58.70
2019-03-09T07:52:48.048Z,59.26
2019-03-09T07:55:19.711Z,54.56
2019-03-09T07:57:50.156Z,56.64
2019-03-09T08:00:23.438Z,56.59
2019-03-09T08:02:54.796Z,54.83
2019-03-09T08:05:26.319Z,55.40
2019-03-09T08:07:56.812Z,52.39
2019-03-09T08:10:29.654Z,53.47
2019-03-09T08:13:00.123Z,53.33
2019-03-09T08:15:30.277Z,51.92
2019-03-09T08:18:02.175Z,52.12
2019-03-09T08:20:32.748Z,53.27
2019-03-09T08:23:03.375Z,51.88
2019-03-09T08:25:33.450Z,51.02
2019-03-09T08:28:03.910Z,51.90
2019-03-09T08:30:34.703Z,50.96
2019-03-09T08:33:05.602Z,51.90
2019-03-09T08:35:36.193Z,50.25
2019-03-09T08:38:06.647Z,52.18
2019-03-09T08:40:37.019Z,54.77
2019-03-09T08:43:07.802Z,56.15
2019-03-09T08:45:38.443Z,54.54
2019-03-09T08:48:09.502Z,56.48
2019-03-09T08:50:39.671Z,55.01
2019-03-09T08:53:09.709Z,50.08
2019-03-09T08:55:40.750Z,48.45
2019-03-09T08:58:10.924Z,50.90
2019-03-09T09:00:41.997Z,49.72
2019-03-09T09:03:11.964Z,49.83
2019-03-09T09:05:42.337Z,51.38
2019-03-09T09:08:12.578Z,48.83
2019-03-09T09:10:42.751Z,48.73
2019-03-09T09:13:13.006Z,47.30
2019-03-09T09:15:43.014Z,47.79
2019-03-09T09:18:14.374Z,48.16
2019-03-09T09:20:44.378Z,46.87
2019-03-09T09:23:14.718Z,49.29
2019-03-09T09:25:44.870Z,46.14
2019-03-09T09:28:14.758Z,49.35
2019-03-09T09:30:45.586Z,46.55
2019-03-09T09:33:15.456Z,46.96
2019-03-09T09:35:45.587Z,46.67
2019-03-09T09:38:15.769Z,46.30
2019-03-09T09:40:46.056Z,46.08
2019-03-09T09:43:16.415Z,46.16
2019-03-09T09:45:46.681Z,42.88
2019-03-09T09:48:17.365Z,43.08
2019-03-09T09:50:47.699Z,43.31
2019-03-09T09:53:18.192Z,44.47
2019-03-09T09:55:48.569Z,43.32
2019-03-09T09:58:18.580Z,42.83
2019-03-09T10:00:48.700Z,44.78
2019-03-09T10:03:18.922Z,41.74
2019-03-09T10:05:49.149Z,40.47
2019-03-09T10:08:19.807Z,40.92
2019-03-09T10:10:49.887Z,39.00
2019-03-09T10:13:20.823Z,38.72
2019-03-09T10:16:10.287Z,39.08
2019-03-09T10:19:01.017Z,37.19
2019-03-09T10:22:01.488Z,37.23
2019-03-09T10:24:43.321Z,38.49
2019-03-09T10:27:24.041Z,37.05
2019-03-09T10:29:54.916Z,37.12
2019-03-09T10:32:25.288Z,36.65
2019-03-09T10:34:55.141Z,36.72
2019-03-09T10:37:25.249Z,34.73
2019-03-09T10:39:55.753Z,33.59
2019-03-09T10:42:26.482Z,33.89
2019-03-09T10:44:57.027Z,32.51
2019-03-09T10:47:28.458Z,31.52
2019-03-09T10:50:00.567Z,32.16
2019-03-09T10:52:31.199Z,30.68
2019-03-09T10:55:01.936Z,30.46
2019-03-09T10:57:33.536Z,31.35
2019-03-09T11:00:09.657Z,30.95
2019-03-09T11:02:42.652Z,32.03
2019-03-09T11:05:13.577Z,32.73
2019-03-09T11:07:44.686Z,36.24
2019-03-09T11:10:16.535Z,33.33
2019-03-09T11:12:47.924Z,34.88
2019-03-09T11:15:19.616Z,33.68
2019-03-09T11:17:50.559Z,32.72
2019-03-09T11:20:22.444Z,34.33
2019-03-09T11:22:53.589Z,34.60
2019-03-09T11:25:23.857Z,34.47
2019-03-09T11:27:54.303Z,32.00
2019-03-09T11:30:28.296Z,29.51
2019-03-09T11:32:59.579Z,29.97
2019-03-09T11:35:32.791Z,29.88
2019-03-09T11:38:03.483Z,29.89
2019-03-09T11:40:35.051Z,29.76
2019-03-09T11:43:06.654Z,30.12
2019-03-09T11:45:37.734Z,31.99
2019-03-09T11:48:08.567Z,33.53
2019-03-09T11:50:39.551Z,31.76
2019-03-09T11:53:10.416Z,33.09
2019-03-09T11:55:41.480Z,34.95
2019-03-09T11:58:12.112Z,35.05
2019-03-09T12:00:43.590Z,32.60
2019-03-09T12:03:14.221Z,31.49
2019-03-09T12:05:44.483Z,34.12
2019-03-09T12:08:15.293Z,37.19
2019-03-09T12:10:45.568Z,38.42
2019-03-09T12:13:15.693Z,37.79
2019-03-09T12:15:45.946Z,37.34
2019-03-09T12:18:16.416Z,37.81
2019-03-09T12:20:48.091Z,37.26
2019-03-09T12:23:23.669Z,38.32
2019-03-09T12:25:53.809Z,35.97
2019-03-09T12:28:25.322Z,33.45
2019-03-09T12:30:57.499Z,34.21
2019-03-09T12:33:28.979Z,37.50
2019-03-09T12:36:00.012Z,36.02
2019-03-09T12:38:30.464Z,34.91
2019-03-09T12:41:01.606Z,36.77
2019-03-09T12:43:31.727Z,36.40
2019-03-09T12:46:01.810Z,38.07
2019-03-09T12:48:34.050Z,37.11
2019-03-09T12:51:04.534Z,36.51
2019-03-09T12:53:34.878Z,36.73
2019-03-09T12:56:04.881Z,37.93
2019-03-09T12:58:36.200Z,36.87
2019-03-09T13:01:07.304Z,37.29
2019-03-09T13:03:38.620Z,34.93
2019-03-09T13:06:09.560Z,34.50
2019-03-09T13:08:40.388Z,36.67
2019-03-09T13:11:10.806Z,38.04
2019-03-09T13:13:41.347Z,38.41
2019-03-09T13:16:11.398Z,37.45
2019-03-09T13:18:42.109Z,35.61
2019-03-09T13:21:13.538Z,33.49
2019-03-09T13:23:44.297Z,31.81
2019-03-09T13:26:14.853Z,31.88
2019-03-09T13:28:45.174Z,31.71
2019-03-09T13:31:15.264Z,29.85
2019-03-09T13:33:45.630Z,31.17
2019-03-09T13:36:16.488Z,30.60
2019-03-09T13:38:47.142Z,28.95
2019-03-09T13:41:17.684Z,30.82
2019-03-09T13:43:48.085Z,30.18
2019-03-09T13:46:19.302Z,31.10
2019-03-09T13:48:49.735Z,31.54
2019-03-09T13:51:20.029Z,29.80
2019-03-09T13:53:50.496Z,30.69
2019-03-09T13:56:21.510Z,30.22
2019-03-09T13:58:52.230Z,29.22
2019-03-09T14:01:23.040Z,28.46
2019-03-09T14:03:53.556Z,29.16
2019-03-09T14:06:24.154Z,29.75
2019-03-09T14:08:54.270Z,28.86
2019-03-09T14:11:26.024Z,30.11
2019-03-09T14:13:56.602Z,30.01
2019-03-09T14:16:26.795Z,30.04
2019-03-09T14:18:57.866Z,30.47
2019-03-09T14:21:38.355Z,29.72
2019-03-09T14:24:19.259Z,31.65
2019-03-09T14:26:57.543Z,31.20
2019-03-09T14:29:46.743Z,31.96
2019-03-09T14:32:23.083Z,32.90
2019-03-09T14:35:07.185Z,34.08
2019-03-09T14:37:47.755Z,35.42
2019-03-09T14:40:18.367Z,34.89
2019-03-09T14:43:00.799Z,35.14
2019-03-09T14:45:41.506Z,35.22
2019-03-09T14:48:23.990Z,35.45
2019-03-09T14:51:04.995Z,36.85
2019-03-09T14:53:52.906Z,36.22
2019-03-09T14:56:24.614Z,37.21
2019-03-09T14:59:04.690Z,36.80
2019-03-09T15:01:48.970Z,37.55
2019-03-09T15:04:35.094Z,38.94
2019-03-09T15:07:09.624Z,38.40
2019-03-09T15:09:53.222Z,39.26
2019-03-09T15:12:35.081Z,39.82
2019-03-09T15:15:24.562Z,40.32
2019-03-09T15:18:03.876Z,40.08
2019-03-09T15:20:52.713Z,39.54
2019-03-09T15:23:39.157Z,39.82
2019-03-09T15:26:24.619Z,39.83
2019-03-09T15:29:08.597Z,38.94
2019-03-09T15:31:54.840Z,39.37
2019-03-09T15:34:39.307Z,38.94
2019-03-09T15:37:13.399Z,38.73
2019-03-09T15:39:49.245Z,38.70
2019-03-09T15:42:37.559Z,38.48
2019-03-09T15:45:17.836Z,38.15
2019-03-09T15:47:58.945Z,38.91
2019-03-09T15:50:43.155Z,38.21
2019-03-09T15:53:26.889Z,37.62
2019-03-09T15:56:06.710Z,38.06
2019-03-09T15:58:54.063Z,38.58
2019-03-09T16:01:35.915Z,38.44
2019-03-09T16:04:08.991Z,38.98
2019-03-09T16:06:43.714Z,39.69
2019-03-09T16:09:15.424Z,39.48
2019-03-09T16:11:46.270Z,39.42
2019-03-09T16:14:16.347Z,39.51
2019-03-09T16:16:47.802Z,39.48
2019-03-09T16:19:20.351Z,38.78
2019-03-09T16:21:51.836Z,39.26
2019-03-09T16:24:26.694Z,39.16
2019-03-09T16:26:59.135Z,39.03
2019-03-09T16:29:30.434Z,39.02
2019-03-09T16:32:01.174Z,39.46
2019-03-09T16:34:32.582Z,39.80
2019-03-09T16:37:02.913Z,39.93
2019-03-09T16:39:34.866Z,40.28
2019-03-09T16:42:05.595Z,40.74
2019-03-09T16:44:36.118Z,41.34
2019-03-09T16:47:06.189Z,41.67
2019-03-09T16:49:37.515Z,41.76
2019-03-09T16:52:08.062Z,42.06
2019-03-09T16:54:38.393Z,42.60
2019-03-09T16:57:09.095Z,43.02
2019-03-09T16:59:39.508Z,43.17
2019-03-09T17:02:10.087Z,44.40
2019-03-09T17:04:41.681Z,45.07
2019-03-09T17:07:11.998Z,47.36
2019-03-09T17:09:42.736Z,49.31
2019-03-09T17:12:13.537Z,49.70
2019-03-09T17:14:44.070Z,49.96
2019-03-09T17:17:14.474Z,51.53
2019-03-09T17:19:45.088Z,52.67
2019-03-09T17:22:17.990Z,52.71
2019-03-09T17:24:49.509Z,53.05
2019-03-09T17:27:19.638Z,52.77
2019-03-09T17:29:49.843Z,52.83
2019-03-09T17:32:25.765Z,52.83
2019-03-09T17:34:52.289Z,53.00
2019-03-09T17:37:23.513Z,52.09
2019-03-09T17:39:55.836Z,52.24
2019-03-09T17:42:28.028Z,52.03
2019-03-09T17:44:58.905Z,51.75
2019-03-09T17:47:30.347Z,52.00
2019-03-09T17:50:05.638Z,51.74
2019-03-09T17:52:37.372Z,51.58
2019-03-09T17:55:11.923Z,51.54
2019-03-09T17:57:48.563Z,51.64
2019-03-09T18:00:30.809Z,51.87
2019-03-09T18:03:06.147Z,52.31
2019-03-09T18:05:40.630Z,52.43
2019-03-09T18:08:18.269Z,52.66
2019-03-09T18:10:57.847Z,52.69
2019-03-09T18:13:32.881Z,53.10
2019-03-09T18:16:05.437Z,52.82
2019-03-09T18:18:36.971Z,52.87
2019-03-09T18:21:11.798Z,52.85
2019-03-09T18:23:43.745Z,52.84
2019-03-09T18:26:17.437Z,52.72
2019-03-09T18:28:49.339Z,53.24
2019-03-09T18:31:20.862Z,53.51
2019-03-09T18:33:56.242Z,53.46
2019-03-09T18:36:30.294Z,53.65
2019-03-09T18:39:01.543Z,53.86
2019-03-09T18:41:34.863Z,54.57
2019-03-09T18:44:05.668Z,55.39
2019-03-09T18:46:37.769Z,56.36
2019-03-09T18:49:08.796Z,56.85
2019-03-09T18:51:39.896Z,57.37
2019-03-09T18:54:10.521Z,57.84
2019-03-09T18:56:41.585Z,58.62
2019-03-09T18:59:14.136Z,58.12
2019-03-09T19:01:45.152Z,57.84
2019-03-09T19:04:16.098Z,57.59
2019-03-09T19:06:47.810Z,55.71
2019-03-09T19:09:19.508Z,55.39
2019-03-09T19:11:50.011Z,54.33
2019-03-09T19:14:20.411Z,54.63
2019-03-09T19:16:50.926Z,54.63
2019-03-09T19:19:22.784Z,54.78
2019-03-09T19:21:55.477Z,55.16
2019-03-09T19:24:26.224Z,55.08
2019-03-09T19:26:57.821Z,56.04
2019-03-09T19:29:28.546Z,56.69
2019-03-09T19:32:00.904Z,56.94
2019-03-09T19:34:31.660Z,56.43
2019-03-09T19:37:04.110Z,57.24
2019-03-09T19:39:34.655Z,58.98
2019-03-09T19:42:05.368Z,60.81
2019-03-09T19:44:36.409Z,61.55
2019-03-09T19:47:07.308Z,62.93
2019-03-09T19:49:38.349Z,65.69
2019-03-09T19:52:09.669Z,66.42
2019-03-09T19:54:40.175Z,65.84
2019-03-09T19:57:11.229Z,64.38
2019-03-09T19:59:43.753Z,62.65
2019-03-09T20:02:14.619Z,62.22
2019-03-09T20:04:45.523Z,61.33
2019-03-09T20:07:18.289Z,61.92
2019-03-09T20:09:48.913Z,62.30
2019-03-09T20:12:20.794Z,62.03
2019-03-09T20:14:53.063Z,61.77
2019-03-09T20:21:10.949Z,60.49
2019-03-09T20:23:46.035Z,60.26
2019-03-09T20:26:17.611Z,59.37
2019-03-09T20:28:48.842Z,62.73
2019-03-09T20:31:19.734Z,65.87
2019-03-09T20:33:51.082Z,68.38
2019-03-09T20:36:21.691Z,69.24
2019-03-09T20:38:54.069Z,70.23
2019-03-09T20:41:26.907Z,71.22
2019-03-09T20:43:58.620Z,71.60
2019-03-09T20:46:42.056Z,72.20
2019-03-09T20:49:19.321Z,73.44
2019-03-09T20:52:05.747Z,74.77
2019-03-09T20:54:54.771Z,76.32
2019-03-09T20:57:29.066Z,75.79
2019-03-09T21:00:07.748Z,75.48
2019-03-09T21:06:33.597Z,72.69
2019-03-09T21:09:06.814Z,74.07
2019-03-09T21:11:39.858Z,72.93
2019-03-09T21:14:11.388Z,72.90
2019-03-09T21:16:43.707Z,70.49
2019-03-09T21:19:15.703Z,70.41
2019-03-09T21:21:48.119Z,71.49
2019-03-09T21:24:27.926Z,72.46
2019-03-09T21:27:00.714Z,74.79
2019-03-09T21:29:41.991Z,77.44
2019-03-09T21:32:19.100Z,77.72
2019-03-09T21:34:50.210Z,76.40
2019-03-09T21:37:24.011Z,76.28
2019-03-09T21:39:56.245Z,78.79
2019-03-09T21:42:29.360Z,78.62
2019-03-09T21:45:02.931Z,80.97
2019-03-09T21:47:34.280Z,81.42
2019-03-09T21:50:11.418Z,81.05
2019-03-09T21:52:43.314Z,81.23
2019-03-09T21:55:22.941Z,78.75
2019-03-09T21:57:57.390Z,80.18
2019-03-09T22:00:32.738Z,81.47
2019-03-09T22:03:12.401Z,78.13
2019-03-09T22:05:47.729Z,76.86
2019-03-09T22:08:29.586Z,78.87
2019-03-09T22:11:04.115Z,81.53
2019-03-09T22:13:51.384Z,83.24
2019-03-09T22:16:27.063Z,83.69
2019-03-09T22:18:58.807Z,84.00
2019-03-09T22:21:31.455Z,83.15
2019-03-09T22:24:03.814Z,83.57
2019-03-09T22:26:35.885Z,83.93
2019-03-09T22:29:09.790Z,83.11
2019-03-09T22:31:47.055Z,83.73
2019-03-09T22:34:25.538Z,83.88
2019-03-09T22:37:02.060Z,84.41
2019-03-09T22:39:38.260Z,86.16
2019-03-09T22:42:12.438Z,85.87
2019-03-09T22:44:43.891Z,87.09
2019-03-09T22:47:17.368Z,87.18
2019-03-09T22:49:49.000Z,86.01
2019-03-09T22:52:20.330Z,85.82
2019-03-09T22:54:52.790Z,85.73
2019-03-09T22:57:23.462Z,85.74
2019-03-09T22:59:55.822Z,86.69
2019-03-09T23:02:30.832Z,83.08
2019-03-09T23:05:01.981Z,86.34
2019-03-09T23:07:32.742Z,88.26
2019-03-09T23:10:06.471Z,92.01
2019-03-09T23:12:37.956Z,94.92
2019-03-09T23:15:12.629Z,95.07
2019-03-09T23:17:46.128Z,95.96
2019-03-09T23:20:24.959Z,98.56
2019-03-09T23:22:57.278Z,98.15
2019-03-09T23:25:30.848Z,89.87
2019-03-09T23:28:04.457Z,90.25
2019-03-09T23:30:35.871Z,92.30
2019-03-09T23:33:07.231Z,92.05
2019-03-09T23:35:38.540Z,92.99
2019-03-09T23:38:10.096Z,100.00
2019-03-09T23:40:42.138Z,100.00
2019-03-09T23:43:13.194Z,100.00
2019-03-09T23:45:46.594Z,100.00
2019-03-09T23:48:19.311Z,100.00
2019-03-09T23:50:51.574Z,100.00
2019-03-09T23:53:23.717Z,100.00
2019-03-09T23:55:58.757Z,100.00
2019-03-09T23:58:30.578Z,100.00
